sensor_id;sensor_type;location;lat;lon;timestamp;temperature;humidity
6256;DHT22;3161;48.794;9.784;2024-03-08T00:00:12;3.30;99.90
6256;DHT22;3161;48.794;9.784;2024-03-08T00:02:41;3.30;99.90
6256;DHT22;3161;48.794;9.784;2024-03-08T00:05:09;3.30;99.90
6256;DHT22;3161;48.794;9.784;2024-03-08T00:07:37;3.20;99.90
6256;DHT22;3161;48.794;9.784;2024-03-08T00:10:06;3.00;99.90
6256;DHT22;3161;48.794;9.784;2024-03-08T00:12:42;3.00;99.90
6256;DHT22;3161;48.794;9.784;2024-03-08T00:15:05;3.00;99.90
6256;DHT22;3161;48.794;9.784;2024-03-08T00:17:33;3.00;99.90
6256;DHT22;3161;48.794;9.784;2024-03-08T00:20:01;3.10;99.90
6256;DHT22;3161;48.794;9.784;2024-03-08T00:22:30;3.10;99.90
6256;DHT22;3161;48.794;9.784;2024-03-08T00:24:57;3.10;99.90
6256;DHT22;3161;48.794;9.784;2024-03-08T00:27:25;3.10;99.90
6256;DHT22;3161;48.794;9.784;2024-03-08T00:29:52;3.10;99.90
6256;DHT22;3161;48.794;9.784;2024-03-08T00:32:20;3.10;99.90
6256;DHT22;3161;48.794;9.784;2024-03-08T00:37:44;3.10;99.90
6256;DHT22;3161;48.794;9.784;2024-03-08T00:40:15;3.20;99.90
6256;DHT22;3161;48.794;9.784;2024-03-08T00:42:43;3.10;99.90
6256;DHT22;3161;48.794;9.784;2024-03-08T00:45:11;3.10;99.90
6256;DHT22;3161;48.794;9.784;2024-03-08T00:47:39;3.00;99.90
6256;DHT22;3161;48.794;9.784;2024-03-08T00:50:08;3.10;99.90
6256;DHT22;3161;48.794;9.784;2024-03-08T00:52:37;3.00;99.90
6256;DHT22;3161;48.794;9.784;2024-03-08T00:55:05;3.10;99.90
6256;DHT22;3161;48.794;9.784;2024-03-08T00:57:34;3.10;99.90
6256;DHT22;3161;48.794;9.784;2024-03-08T01:00:03;3.00;99.90
6256;DHT22;3161;48.794;9.784;2024-03-08T01:02:33;3.00;99.90
6256;DHT22;3161;48.794;9.784;2024-03-08T01:05:02;3.00;99.90
6256;DHT22;3161;48.794;9.784;2024-03-08T01:07:31;3.00;99.90
6256;DHT22;3161;48.794;9.784;2024-03-08T01:09:59;3.00;99.90
6256;DHT22;3161;48.794;9.784;2024-03-08T01:12:27;3.00;99.90
6256;DHT22;3161;48.794;9.784;2024-03-08T01:14:56;3.00;99.90
6256;DHT22;3161;48.794;9.784;2024-03-08T01:17:24;3.00;99.90
6256;DHT22;3161;48.794;9.784;2024-03-08T01:19:53;3.00;99.90
6256;DHT22;3161;48.794;9.784;2024-03-08T01:22:21;3.00;99.90
6256;DHT22;3161;48.794;9.784;2024-03-08T01:24:49;3.00;99.90
6256;DHT22;3161;48.794;9.784;2024-03-08T01:27:16;3.00;99.90
6256;DHT22;3161;48.794;9.784;2024-03-08T01:29:44;3.00;99.90
6256;DHT22;3161;48.794;9.784;2024-03-08T01:32:11;3.00;99.90
6256;DHT22;3161;48.794;9.784;2024-03-08T01:34:39;3.00;99.90
6256;DHT22;3161;48.794;9.784;2024-03-08T01:37:06;2.90;99.90
6256;DHT22;3161;48.794;9.784;2024-03-08T01:39:34;2.90;99.90
6256;DHT22;3161;48.794;9.784;2024-03-08T01:42:01;2.90;99.90
6256;DHT22;3161;48.794;9.784;2024-03-08T01:44:29;2.90;99.90
6256;DHT22;3161;48.794;9.784;2024-03-08T01:46:58;2.90;99.90
6256;DHT22;3161;48.794;9.784;2024-03-08T01:49:26;2.90;99.90
6256;DHT22;3161;48.794;9.784;2024-03-08T01:51:55;2.90;99.90
6256;DHT22;3161;48.794;9.784;2024-03-08T01:54:27;2.80;99.90
6256;DHT22;3161;48.794;9.784;2024-03-08T01:56:54;2.80;99.90
6256;DHT22;3161;48.794;9.784;2024-03-08T01:59:22;2.80;99.90
6256;DHT22;3161;48.794;9.784;2024-03-08T02:01:50;2.80;99.90
6256;DHT22;3161;48.794;9.784;2024-03-08T02:04:18;2.70;99.90
6256;DHT22;3161;48.794;9.784;2024-03-08T02:06:47;2.70;99.90
6256;DHT22;3161;48.794;9.784;2024-03-08T02:09:15;2.70;99.90
6256;DHT22;3161;48.794;9.784;2024-03-08T02:11:43;2.70;99.90
6256;DHT22;3161;48.794;9.784;2024-03-08T02:14:12;2.80;99.90
6256;DHT22;3161;48.794;9.784;2024-03-08T02:16:40;2.70;99.90
6256;DHT22;3161;48.794;9.784;2024-03-08T02:19:08;2.70;99.90
6256;DHT22;3161;48.794;9.784;2024-03-08T02:21:36;2.70;99.90
6256;DHT22;3161;48.794;9.784;2024-03-08T02:24:05;2.70;99.90
6256;DHT22;3161;48.794;9.784;2024-03-08T02:26:33;2.70;99.90
6256;DHT22;3161;48.794;9.784;2024-03-08T02:29:01;2.70;99.90
6256;DHT22;3161;48.794;9.784;2024-03-08T02:31:29;2.70;99.90
6256;DHT22;3161;48.794;9.784;2024-03-08T02:33:56;2.70;99.90
6256;DHT22;3161;48.794;9.784;2024-03-08T02:36:24;2.70;99.90
6256;DHT22;3161;48.794;9.784;2024-03-08T02:38:51;2.80;99.90
6256;DHT22;3161;48.794;9.784;2024-03-08T02:41:19;2.80;99.90
6256;DHT22;3161;48.794;9.784;2024-03-08T02:43:46;2.80;99.90
6256;DHT22;3161;48.794;9.784;2024-03-08T02:46:14;2.80;99.90
6256;DHT22;3161;48.794;9.784;2024-03-08T02:48:42;2.80;99.90
6256;DHT22;3161;48.794;9.784;2024-03-08T02:51:09;2.70;99.90
6256;DHT22;3161;48.794;9.784;2024-03-08T02:53:37;2.70;99.90
6256;DHT22;3161;48.794;9.784;2024-03-08T02:56:04;2.70;99.90
6256;DHT22;3161;48.794;9.784;2024-03-08T02:58:34;2.70;99.90
6256;DHT22;3161;48.794;9.784;2024-03-08T03:01:01;2.80;99.90
6256;DHT22;3161;48.794;9.784;2024-03-08T03:03:29;2.70;99.90
6256;DHT22;3161;48.794;9.784;2024-03-08T03:05:57;2.70;99.90
6256;DHT22;3161;48.794;9.784;2024-03-08T03:08:24;2.70;99.90
6256;DHT22;3161;48.794;9.784;2024-03-08T03:10:52;2.70;99.90
6256;DHT22;3161;48.794;9.784;2024-03-08T03:13:19;2.70;99.90
6256;DHT22;3161;48.794;9.784;2024-03-08T03:15:47;2.70;99.90
6256;DHT22;3161;48.794;9.784;2024-03-08T03:18:15;2.70;99.90
6256;DHT22;3161;48.794;9.784;2024-03-08T03:20:42;2.80;99.90
6256;DHT22;3161;48.794;9.784;2024-03-08T03:23:10;2.80;99.90
6256;DHT22;3161;48.794;9.784;2024-03-08T03:25:39;2.80;99.90
6256;DHT22;3161;48.794;9.784;2024-03-08T03:28:08;2.90;99.90
6256;DHT22;3161;48.794;9.784;2024-03-08T03:30:37;2.90;99.90
6256;DHT22;3161;48.794;9.784;2024-03-08T03:33:05;2.90;99.90
6256;DHT22;3161;48.794;9.784;2024-03-08T03:35:36;3.00;99.90
6256;DHT22;3161;48.794;9.784;2024-03-08T03:38:04;3.00;99.90
6256;DHT22;3161;48.794;9.784;2024-03-08T03:40:35;3.00;99.90
6256;DHT22;3161;48.794;9.784;2024-03-08T03:43:03;3.00;99.90
6256;DHT22;3161;48.794;9.784;2024-03-08T03:45:31;3.00;99.90
6256;DHT22;3161;48.794;9.784;2024-03-08T03:48:06;3.00;99.90
6256;DHT22;3161;48.794;9.784;2024-03-08T03:50:36;3.00;99.90
6256;DHT22;3161;48.794;9.784;2024-03-08T03:53:04;3.00;99.90
6256;DHT22;3161;48.794;9.784;2024-03-08T03:55:33;3.00;99.90
6256;DHT22;3161;48.794;9.784;2024-03-08T03:58:01;3.00;99.90
6256;DHT22;3161;48.794;9.784;2024-03-08T04:00:29;3.00;99.90
6256;DHT22;3161;48.794;9.784;2024-03-08T04:02:56;3.00;99.90
6256;DHT22;3161;48.794;9.784;2024-03-08T04:05:26;3.00;99.90
6256;DHT22;3161;48.794;9.784;2024-03-08T04:07:53;3.00;99.90
6256;DHT22;3161;48.794;9.784;2024-03-08T04:10:21;3.00;99.90
6256;DHT22;3161;48.794;9.784;2024-03-08T04:12:48;3.10;99.90
6256;DHT22;3161;48.794;9.784;2024-03-08T04:15:16;3.10;99.90
6256;DHT22;3161;48.794;9.784;2024-03-08T04:17:43;3.20;99.90
6256;DHT22;3161;48.794;9.784;2024-03-08T04:20:12;3.20;99.90
6256;DHT22;3161;48.794;9.784;2024-03-08T04:22:41;3.10;99.90
6256;DHT22;3161;48.794;9.784;2024-03-08T04:25:09;3.10;99.90
6256;DHT22;3161;48.794;9.784;2024-03-08T04:27:37;3.20;99.90
6256;DHT22;3161;48.794;9.784;2024-03-08T04:30:05;3.20;99.90
6256;DHT22;3161;48.794;9.784;2024-03-08T04:32:36;3.20;99.90
6256;DHT22;3161;48.794;9.784;2024-03-08T04:35:04;3.20;99.90
6256;DHT22;3161;48.794;9.784;2024-03-08T04:37:32;3.10;99.90
6256;DHT22;3161;48.794;9.784;2024-03-08T04:40:00;3.20;99.90
6256;DHT22;3161;48.794;9.784;2024-03-08T04:42:28;3.20;99.90
6256;DHT22;3161;48.794;9.784;2024-03-08T04:44:58;3.20;99.90
6256;DHT22;3161;48.794;9.784;2024-03-08T04:47:26;3.20;99.90
6256;DHT22;3161;48.794;9.784;2024-03-08T04:49:54;3.20;99.90
6256;DHT22;3161;48.794;9.784;2024-03-08T04:52:22;3.20;99.90
6256;DHT22;3161;48.794;9.784;2024-03-08T04:54:50;3.20;99.90
6256;DHT22;3161;48.794;9.784;2024-03-08T04:57:17;3.20;99.90
6256;DHT22;3161;48.794;9.784;2024-03-08T04:59:45;3.10;99.90
6256;DHT22;3161;48.794;9.784;2024-03-08T05:02:12;3.10;99.90
6256;DHT22;3161;48.794;9.784;2024-03-08T05:04:40;3.00;99.90
6256;DHT22;3161;48.794;9.784;2024-03-08T05:07:08;3.00;99.90
6256;DHT22;3161;48.794;9.784;2024-03-08T05:09:36;3.00;99.90
6256;DHT22;3161;48.794;9.784;2024-03-08T05:12:04;3.00;99.90
6256;DHT22;3161;48.794;9.784;2024-03-08T05:14:32;3.00;99.90
6256;DHT22;3161;48.794;9.784;2024-03-08T05:17:01;3.00;99.90
6256;DHT22;3161;48.794;9.784;2024-03-08T05:19:28;3.00;99.90
6256;DHT22;3161;48.794;9.784;2024-03-08T05:21:57;3.00;99.90
6256;DHT22;3161;48.794;9.784;2024-03-08T05:24:24;3.00;99.90
6256;DHT22;3161;48.794;9.784;2024-03-08T05:26:51;3.10;99.90
6256;DHT22;3161;48.794;9.784;2024-03-08T05:29:19;3.10;99.90
6256;DHT22;3161;48.794;9.784;2024-03-08T05:31:51;3.10;99.90
6256;DHT22;3161;48.794;9.784;2024-03-08T05:34:22;3.10;99.90
6256;DHT22;3161;48.794;9.784;2024-03-08T05:36:50;3.10;99.90
6256;DHT22;3161;48.794;9.784;2024-03-08T05:39:18;3.10;99.90
6256;DHT22;3161;48.794;9.784;2024-03-08T05:41:46;3.00;99.90
6256;DHT22;3161;48.794;9.784;2024-03-08T05:44:14;3.10;99.90
6256;DHT22;3161;48.794;9.784;2024-03-08T05:46:43;3.10;99.90
6256;DHT22;3161;48.794;9.784;2024-03-08T05:49:10;3.10;99.90
6256;DHT22;3161;48.794;9.784;2024-03-08T05:51:39;3.10;99.90
6256;DHT22;3161;48.794;9.784;2024-03-08T05:54:09;3.10;99.90
6256;DHT22;3161;48.794;9.784;2024-03-08T05:56:38;3.10;99.90
6256;DHT22;3161;48.794;9.784;2024-03-08T05:59:07;3.00;99.90
6256;DHT22;3161;48.794;9.784;2024-03-08T06:01:35;3.00;99.90
6256;DHT22;3161;48.794;9.784;2024-03-08T06:04:04;3.10;99.90
6256;DHT22;3161;48.794;9.784;2024-03-08T06:06:32;3.10;99.90
6256;DHT22;3161;48.794;9.784;2024-03-08T06:08:59;3.20;99.90
6256;DHT22;3161;48.794;9.784;2024-03-08T06:11:27;3.20;99.90
6256;DHT22;3161;48.794;9.784;2024-03-08T06:13:55;3.20;99.90
6256;DHT22;3161;48.794;9.784;2024-03-08T06:16:24;3.30;99.90
6256;DHT22;3161;48.794;9.784;2024-03-08T06:18:51;3.30;99.90
6256;DHT22;3161;48.794;9.784;2024-03-08T06:21:19;3.30;99.90
6256;DHT22;3161;48.794;9.784;2024-03-08T06:23:47;3.40;99.90
6256;DHT22;3161;48.794;9.784;2024-03-08T06:26:15;3.40;99.90
6256;DHT22;3161;48.794;9.784;2024-03-08T06:28:43;3.40;99.90
6256;DHT22;3161;48.794;9.784;2024-03-08T06:31:10;3.40;99.90
6256;DHT22;3161;48.794;9.784;2024-03-08T06:33:38;3.50;99.90
6256;DHT22;3161;48.794;9.784;2024-03-08T06:36:06;3.50;99.90
6256;DHT22;3161;48.794;9.784;2024-03-08T06:38:33;3.60;99.90
6256;DHT22;3161;48.794;9.784;2024-03-08T06:41:01;3.60;99.90
6256;DHT22;3161;48.794;9.784;2024-03-08T06:43:30;3.60;99.90
6256;DHT22;3161;48.794;9.784;2024-03-08T06:45:59;3.60;99.90
6256;DHT22;3161;48.794;9.784;2024-03-08T06:48:27;3.60;99.90
6256;DHT22;3161;48.794;9.784;2024-03-08T06:50:56;3.70;99.90
6256;DHT22;3161;48.794;9.784;2024-03-08T06:53:23;3.70;99.90
6256;DHT22;3161;48.794;9.784;2024-03-08T06:55:51;3.70;99.90
6256;DHT22;3161;48.794;9.784;2024-03-08T06:58:19;3.90;99.90
6256;DHT22;3161;48.794;9.784;2024-03-08T07:00:46;3.80;99.90
6256;DHT22;3161;48.794;9.784;2024-03-08T07:03:15;3.80;99.90
6256;DHT22;3161;48.794;9.784;2024-03-08T07:05:43;3.80;99.90
6256;DHT22;3161;48.794;9.784;2024-03-08T07:08:11;3.80;99.90
6256;DHT22;3161;48.794;9.784;2024-03-08T07:10:40;3.90;99.90
6256;DHT22;3161;48.794;9.784;2024-03-08T07:13:11;3.90;99.90
6256;DHT22;3161;48.794;9.784;2024-03-08T07:15:39;4.00;99.90
6256;DHT22;3161;48.794;9.784;2024-03-08T07:18:06;4.00;99.90
6256;DHT22;3161;48.794;9.784;2024-03-08T07:20:35;4.00;99.90
6256;DHT22;3161;48.794;9.784;2024-03-08T07:23:03;4.00;99.90
6256;DHT22;3161;48.794;9.784;2024-03-08T07:25:31;4.00;99.90
6256;DHT22;3161;48.794;9.784;2024-03-08T07:27:58;4.00;99.90
6256;DHT22;3161;48.794;9.784;2024-03-08T07:30:27;4.00;99.90
6256;DHT22;3161;48.794;9.784;2024-03-08T07:33:12;4.10;99.90
6256;DHT22;3161;48.794;9.784;2024-03-08T07:35:40;4.20;99.90
6256;DHT22;3161;48.794;9.784;2024-03-08T07:38:10;4.30;99.90
6256;DHT22;3161;48.794;9.784;2024-03-08T07:40:40;4.30;99.90
6256;DHT22;3161;48.794;9.784;2024-03-08T07:43:10;4.30;99.90
6256;DHT22;3161;48.794;9.784;2024-03-08T07:45:40;4.50;99.90
6256;DHT22;3161;48.794;9.784;2024-03-08T07:48:08;4.50;99.90
6256;DHT22;3161;48.794;9.784;2024-03-08T07:50:38;4.60;99.90
6256;DHT22;3161;48.794;9.784;2024-03-08T07:53:06;4.60;99.90
6256;DHT22;3161;48.794;9.784;2024-03-08T07:55:34;4.50;99.90
6256;DHT22;3161;48.794;9.784;2024-03-08T07:58:03;4.60;99.90
6256;DHT22;3161;48.794;9.784;2024-03-08T08:00:31;4.60;99.90
6256;DHT22;3161;48.794;9.784;2024-03-08T08:02:59;4.70;99.90
6256;DHT22;3161;48.794;9.784;2024-03-08T08:05:27;4.80;99.90
6256;DHT22;3161;48.794;9.784;2024-03-08T08:07:55;4.90;99.90
6256;DHT22;3161;48.794;9.784;2024-03-08T08:10:22;5.00;99.90
6256;DHT22;3161;48.794;9.784;2024-03-08T08:12:51;4.90;99.90
6256;DHT22;3161;48.794;9.784;2024-03-08T08:15:19;4.70;99.90
6256;DHT22;3161;48.794;9.784;2024-03-08T08:17:47;4.80;99.90
6256;DHT22;3161;48.794;9.784;2024-03-08T08:20:14;4.90;99.90
6256;DHT22;3161;48.794;9.784;2024-03-08T08:22:43;5.00;99.90
6256;DHT22;3161;48.794;9.784;2024-03-08T08:25:11;5.00;99.90
6256;DHT22;3161;48.794;9.784;2024-03-08T08:27:42;4.90;99.90
6256;DHT22;3161;48.794;9.784;2024-03-08T08:30:10;4.80;99.90
6256;DHT22;3161;48.794;9.784;2024-03-08T08:32:38;4.90;99.90
6256;DHT22;3161;48.794;9.784;2024-03-08T08:35:07;4.90;99.90
6256;DHT22;3161;48.794;9.784;2024-03-08T08:37:35;4.90;99.90
6256;DHT22;3161;48.794;9.784;2024-03-08T08:40:05;4.90;99.90
6256;DHT22;3161;48.794;9.784;2024-03-08T08:42:35;5.00;99.90
6256;DHT22;3161;48.794;9.784;2024-03-08T08:45:03;5.00;99.90
6256;DHT22;3161;48.794;9.784;2024-03-08T08:47:32;5.00;99.90
6256;DHT22;3161;48.794;9.784;2024-03-08T08:49:59;5.10;99.90
6256;DHT22;3161;48.794;9.784;2024-03-08T08:52:27;5.20;99.90
6256;DHT22;3161;48.794;9.784;2024-03-08T08:54:55;5.20;99.90
6256;DHT22;3161;48.794;9.784;2024-03-08T08:57:23;5.30;99.90
6256;DHT22;3161;48.794;9.784;2024-03-08T08:59:50;5.30;99.90
6256;DHT22;3161;48.794;9.784;2024-03-08T09:02:18;5.40;99.90
6256;DHT22;3161;48.794;9.784;2024-03-08T09:04:47;5.40;99.90
6256;DHT22;3161;48.794;9.784;2024-03-08T09:07:15;5.50;99.90
6256;DHT22;3161;48.794;9.784;2024-03-08T09:09:45;5.60;99.90
6256;DHT22;3161;48.794;9.784;2024-03-08T09:12:12;5.60;99.90
6256;DHT22;3161;48.794;9.784;2024-03-08T09:14:40;5.70;99.90
6256;DHT22;3161;48.794;9.784;2024-03-08T09:17:09;5.80;99.90
6256;DHT22;3161;48.794;9.784;2024-03-08T09:19:36;5.80;99.90
6256;DHT22;3161;48.794;9.784;2024-03-08T09:22:07;6.00;99.90
6256;DHT22;3161;48.794;9.784;2024-03-08T09:24:34;5.80;99.90
6256;DHT22;3161;48.794;9.784;2024-03-08T09:27:02;5.50;99.90
6256;DHT22;3161;48.794;9.784;2024-03-08T09:29:30;5.60;99.90
6256;DHT22;3161;48.794;9.784;2024-03-08T09:31:57;5.40;99.90
6256;DHT22;3161;48.794;9.784;2024-03-08T09:34:25;5.60;99.90
6256;DHT22;3161;48.794;9.784;2024-03-08T09:36:53;5.70;99.90
6256;DHT22;3161;48.794;9.784;2024-03-08T09:39:20;5.80;99.90
6256;DHT22;3161;48.794;9.784;2024-03-08T09:41:48;6.00;99.90
6256;DHT22;3161;48.794;9.784;2024-03-08T09:44:16;6.20;99.90
6256;DHT22;3161;48.794;9.784;2024-03-08T09:46:45;6.30;99.90
6256;DHT22;3161;48.794;9.784;2024-03-08T09:49:14;6.40;99.90
6256;DHT22;3161;48.794;9.784;2024-03-08T09:51:41;6.50;99.90
6256;DHT22;3161;48.794;9.784;2024-03-08T09:54:09;6.70;99.90
6256;DHT22;3161;48.794;9.784;2024-03-08T09:56:37;7.00;99.90
6256;DHT22;3161;48.794;9.784;2024-03-08T09:59:08;7.00;99.90
6256;DHT22;3161;48.794;9.784;2024-03-08T10:01:40;7.20;99.90
6256;DHT22;3161;48.794;9.784;2024-03-08T10:04:08;6.90;99.90
6256;DHT22;3161;48.794;9.784;2024-03-08T10:06:36;6.70;99.90
6256;DHT22;3161;48.794;9.784;2024-03-08T10:09:04;6.90;99.90
6256;DHT22;3161;48.794;9.784;2024-03-08T10:11:33;7.10;99.90
6256;DHT22;3161;48.794;9.784;2024-03-08T10:14:01;7.30;99.90
6256;DHT22;3161;48.794;9.784;2024-03-08T10:16:29;7.30;99.90
6256;DHT22;3161;48.794;9.784;2024-03-08T10:18:57;7.40;99.90
6256;DHT22;3161;48.794;9.784;2024-03-08T10:21:25;7.60;99.90
6256;DHT22;3161;48.794;9.784;2024-03-08T10:23:53;7.70;99.90
6256;DHT22;3161;48.794;9.784;2024-03-08T10:26:21;7.70;99.90
6256;DHT22;3161;48.794;9.784;2024-03-08T10:28:50;7.90;99.90
6256;DHT22;3161;48.794;9.784;2024-03-08T10:31:19;8.20;99.90
6256;DHT22;3161;48.794;9.784;2024-03-08T10:33:47;8.50;99.90
6256;DHT22;3161;48.794;9.784;2024-03-08T10:36:15;8.70;99.90
6256;DHT22;3161;48.794;9.784;2024-03-08T10:38:43;9.00;99.90
6256;DHT22;3161;48.794;9.784;2024-03-08T10:41:13;8.90;99.90
6256;DHT22;3161;48.794;9.784;2024-03-08T10:49:18;8.90;99.90
6256;DHT22;3161;48.794;9.784;2024-03-08T10:51:47;9.00;99.90
6256;DHT22;3161;48.794;9.784;2024-03-08T10:54:16;8.90;99.90
6256;DHT22;3161;48.794;9.784;2024-03-08T10:56:44;9.40;99.90
6256;DHT22;3161;48.794;9.784;2024-03-08T10:59:12;9.50;99.90
6256;DHT22;3161;48.794;9.784;2024-03-08T11:01:40;9.80;99.90
6256;DHT22;3161;48.794;9.784;2024-03-08T11:04:08;10.10;99.90
6256;DHT22;3161;48.794;9.784;2024-03-08T11:06:43;10.40;99.90
6256;DHT22;3161;48.794;9.784;2024-03-08T11:09:29;10.80;99.90
6256;DHT22;3161;48.794;9.784;2024-03-08T11:12:20;11.00;99.90
6256;DHT22;3161;48.794;9.784;2024-03-08T11:14:50;11.50;99.90
6256;DHT22;3161;48.794;9.784;2024-03-08T11:19:59;11.20;99.90
6256;DHT22;3161;48.794;9.784;2024-03-08T11:22:29;10.80;99.90
6256;DHT22;3161;48.794;9.784;2024-03-08T11:25:04;10.90;99.90
6256;DHT22;3161;48.794;9.784;2024-03-08T11:27:36;10.90;99.90
6256;DHT22;3161;48.794;9.784;2024-03-08T11:30:05;11.30;99.90
6256;DHT22;3161;48.794;9.784;2024-03-08T11:32:45;11.70;99.90
6256;DHT22;3161;48.794;9.784;2024-03-08T11:35:21;11.60;99.90
6256;DHT22;3161;48.794;9.784;2024-03-08T11:37:52;11.50;99.90
6256;DHT22;3161;48.794;9.784;2024-03-08T11:40:20;12.00;99.90
6256;DHT22;3161;48.794;9.784;2024-03-08T11:42:49;12.30;99.90
6256;DHT22;3161;48.794;9.784;2024-03-08T11:45:18;12.20;99.90
6256;DHT22;3161;48.794;9.784;2024-03-08T11:47:48;12.60;99.90
6256;DHT22;3161;48.794;9.784;2024-03-08T11:50:15;12.90;99.90
6256;DHT22;3161;48.794;9.784;2024-03-08T11:52:45;12.90;99.90
6256;DHT22;3161;48.794;9.784;2024-03-08T11:55:12;13.30;99.90
6256;DHT22;3161;48.794;9.784;2024-03-08T11:57:40;13.30;99.90
6256;DHT22;3161;48.794;9.784;2024-03-08T12:00:16;13.40;99.90
6256;DHT22;3161;48.794;9.784;2024-03-08T12:03:02;13.60;99.90
6256;DHT22;3161;48.794;9.784;2024-03-08T12:05:30;14.10;99.90
6256;DHT22;3161;48.794;9.784;2024-03-08T12:08:04;14.00;99.40
6256;DHT22;3161;48.794;9.784;2024-03-08T12:10:36;14.40;99.90
6256;DHT22;3161;48.794;9.784;2024-03-08T12:13:05;14.30;98.80
6256;DHT22;3161;48.794;9.784;2024-03-08T12:15:36;14.50;99.70
6256;DHT22;3161;48.794;9.784;2024-03-08T12:18:03;14.90;98.60
6256;DHT22;3161;48.794;9.784;2024-03-08T12:20:31;14.80;97.30
6256;DHT22;3161;48.794;9.784;2024-03-08T12:22:59;15.10;97.40
6256;DHT22;3161;48.794;9.784;2024-03-08T12:25:30;15.50;96.80
6256;DHT22;3161;48.794;9.784;2024-03-08T12:28:09;15.40;96.90
6256;DHT22;3161;48.794;9.784;2024-03-08T12:30:49;15.60;97.10
6256;DHT22;3161;48.794;9.784;2024-03-08T12:33:18;16.20;94.00
6256;DHT22;3161;48.794;9.784;2024-03-08T12:35:53;16.90;95.40
6256;DHT22;3161;48.794;9.784;2024-03-08T12:38:27;17.50;93.60
6256;DHT22;3161;48.794;9.784;2024-03-08T12:41:01;17.30;91.90
6256;DHT22;3161;48.794;9.784;2024-03-08T12:43:28;17.50;92.40
6256;DHT22;3161;48.794;9.784;2024-03-08T12:45:58;18.20;91.90
6256;DHT22;3161;48.794;9.784;2024-03-08T12:48:25;18.80;90.20
6256;DHT22;3161;48.794;9.784;2024-03-08T12:50:53;18.90;86.40
6256;DHT22;3161;48.794;9.784;2024-03-08T12:53:21;19.10;84.70
6256;DHT22;3161;48.794;9.784;2024-03-08T12:55:49;19.40;83.30
6256;DHT22;3161;48.794;9.784;2024-03-08T12:58:17;19.90;77.70
6256;DHT22;3161;48.794;9.784;2024-03-08T13:00:46;20.10;80.40
6256;DHT22;3161;48.794;9.784;2024-03-08T13:03:15;20.50;79.70
6256;DHT22;3161;48.794;9.784;2024-03-08T13:05:43;20.60;77.50
6256;DHT22;3161;48.794;9.784;2024-03-08T13:08:12;20.70;71.00
6256;DHT22;3161;48.794;9.784;2024-03-08T13:10:40;20.50;71.50
6256;DHT22;3161;48.794;9.784;2024-03-08T13:13:10;21.40;72.10
6256;DHT22;3161;48.794;9.784;2024-03-08T13:15:40;22.70;68.50
6256;DHT22;3161;48.794;9.784;2024-03-08T13:18:08;22.70;66.50
6256;DHT22;3161;48.794;9.784;2024-03-08T13:20:37;22.30;61.10
6256;DHT22;3161;48.794;9.784;2024-03-08T13:23:04;22.20;61.30
6256;DHT22;3161;48.794;9.784;2024-03-08T13:25:33;22.50;62.40
6256;DHT22;3161;48.794;9.784;2024-03-08T13:28:00;23.70;57.50
6256;DHT22;3161;48.794;9.784;2024-03-08T13:30:28;24.30;57.70
6256;DHT22;3161;48.794;9.784;2024-03-08T13:32:57;24.10;53.60
6256;DHT22;3161;48.794;9.784;2024-03-08T13:35:24;24.70;53.90
6256;DHT22;3161;48.794;9.784;2024-03-08T13:37:53;25.00;51.90
6256;DHT22;3161;48.794;9.784;2024-03-08T13:40:21;23.00;51.00
6256;DHT22;3161;48.794;9.784;2024-03-08T13:42:49;22.40;55.50
6256;DHT22;3161;48.794;9.784;2024-03-08T13:45:17;23.70;51.50
6256;DHT22;3161;48.794;9.784;2024-03-08T13:47:46;25.00;50.10
6256;DHT22;3161;48.794;9.784;2024-03-08T13:50:13;24.20;48.20
6256;DHT22;3161;48.794;9.784;2024-03-08T13:52:42;23.40;49.00
6256;DHT22;3161;48.794;9.784;2024-03-08T13:55:11;20.40;51.40
6256;DHT22;3161;48.794;9.784;2024-03-08T13:57:39;19.80;56.90
6256;DHT22;3161;48.794;9.784;2024-03-08T14:00:07;18.40;55.40
6256;DHT22;3161;48.794;9.784;2024-03-08T14:02:35;17.30;60.60
6256;DHT22;3161;48.794;9.784;2024-03-08T14:05:02;17.40;59.60
6256;DHT22;3161;48.794;9.784;2024-03-08T14:07:30;16.90;61.20
6256;DHT22;3161;48.794;9.784;2024-03-08T14:09:58;16.80;63.00
6256;DHT22;3161;48.794;9.784;2024-03-08T14:12:25;16.30;62.30
6256;DHT22;3161;48.794;9.784;2024-03-08T14:14:53;15.80;64.80
6256;DHT22;3161;48.794;9.784;2024-03-08T14:17:21;15.50;65.80
6256;DHT22;3161;48.794;9.784;2024-03-08T14:19:50;15.10;68.40
6256;DHT22;3161;48.794;9.784;2024-03-08T14:22:17;14.60;68.90
6256;DHT22;3161;48.794;9.784;2024-03-08T14:24:45;15.10;71.10
6256;DHT22;3161;48.794;9.784;2024-03-08T14:27:12;15.50;68.20
6256;DHT22;3161;48.794;9.784;2024-03-08T14:29:41;16.90;66.20
6256;DHT22;3161;48.794;9.784;2024-03-08T14:32:10;19.30;64.30
6256;DHT22;3161;48.794;9.784;2024-03-08T14:34:39;21.60;57.30
6256;DHT22;3161;48.794;9.784;2024-03-08T14:37:06;23.30;55.60
6256;DHT22;3161;48.794;9.784;2024-03-08T14:39:36;23.60;54.20
6256;DHT22;3161;48.794;9.784;2024-03-08T14:42:03;24.80;53.30
6256;DHT22;3161;48.794;9.784;2024-03-08T14:44:32;24.00;49.40
6256;DHT22;3161;48.794;9.784;2024-03-08T14:47:00;22.90;51.60
6256;DHT22;3161;48.794;9.784;2024-03-08T14:49:28;23.40;50.90
6256;DHT22;3161;48.794;9.784;2024-03-08T14:54:47;24.00;46.80
6256;DHT22;3161;48.794;9.784;2024-03-08T14:57:15;24.30;49.00
6256;DHT22;3161;48.794;9.784;2024-03-08T14:59:42;25.10;48.70
6256;DHT22;3161;48.794;9.784;2024-03-08T15:02:11;25.70;47.10
6256;DHT22;3161;48.794;9.784;2024-03-08T15:04:39;24.60;46.30
6256;DHT22;3161;48.794;9.784;2024-03-08T15:07:08;25.50;45.90
6256;DHT22;3161;48.794;9.784;2024-03-08T15:09:36;25.80;45.40
6256;DHT22;3161;48.794;9.784;2024-03-08T15:12:07;25.70;44.10
6256;DHT22;3161;48.794;9.784;2024-03-08T15:14:39;26.20;44.90
6256;DHT22;3161;48.794;9.784;2024-03-08T15:17:06;25.00;43.10
6256;DHT22;3161;48.794;9.784;2024-03-08T15:19:35;22.90;45.60
6256;DHT22;3161;48.794;9.784;2024-03-08T15:22:04;23.90;48.00
6256;DHT22;3161;48.794;9.784;2024-03-08T15:24:32;23.40;45.80
6256;DHT22;3161;48.794;9.784;2024-03-08T15:26:59;22.00;47.90
6256;DHT22;3161;48.794;9.784;2024-03-08T15:29:28;22.40;48.60
6256;DHT22;3161;48.794;9.784;2024-03-08T15:31:56;23.00;47.60
6256;DHT22;3161;48.794;9.784;2024-03-08T15:34:23;23.50;47.20
6256;DHT22;3161;48.794;9.784;2024-03-08T15:36:52;23.70;45.90
6256;DHT22;3161;48.794;9.784;2024-03-08T15:39:20;24.00;47.10
6256;DHT22;3161;48.794;9.784;2024-03-08T15:41:49;24.40;46.40
6256;DHT22;3161;48.794;9.784;2024-03-08T15:44:17;23.60;45.40
6256;DHT22;3161;48.794;9.784;2024-03-08T15:46:45;22.90;47.10
6256;DHT22;3161;48.794;9.784;2024-03-08T15:49:13;20.30;48.30
6256;DHT22;3161;48.794;9.784;2024-03-08T15:51:41;19.50;50.10
6256;DHT22;3161;48.794;9.784;2024-03-08T15:54:08;18.30;51.90
6256;DHT22;3161;48.794;9.784;2024-03-08T15:56:36;17.00;54.00
6256;DHT22;3161;48.794;9.784;2024-03-08T15:59:04;16.20;55.70
6256;DHT22;3161;48.794;9.784;2024-03-08T16:01:33;15.10;58.00
6256;DHT22;3161;48.794;9.784;2024-03-08T16:04:01;14.60;59.60
6256;DHT22;3161;48.794;9.784;2024-03-08T16:06:30;14.40;61.90
6256;DHT22;3161;48.794;9.784;2024-03-08T16:08:57;14.20;61.00
6256;DHT22;3161;48.794;9.784;2024-03-08T16:11:26;13.40;62.20
6256;DHT22;3161;48.794;9.784;2024-03-08T16:13:53;13.30;64.40
6256;DHT22;3161;48.794;9.784;2024-03-08T16:16:21;12.80;65.50
6256;DHT22;3161;48.794;9.784;2024-03-08T16:18:49;12.80;66.50
6256;DHT22;3161;48.794;9.784;2024-03-08T16:21:17;12.90;66.80
6256;DHT22;3161;48.794;9.784;2024-03-08T16:23:45;12.70;67.40
6256;DHT22;3161;48.794;9.784;2024-03-08T16:26:14;12.80;68.70
6256;DHT22;3161;48.794;9.784;2024-03-08T16:28:42;12.60;69.50
6256;DHT22;3161;48.794;9.784;2024-03-08T16:31:10;12.40;69.60
6256;DHT22;3161;48.794;9.784;2024-03-08T16:33:39;12.40;71.50